Time,TemperatureF,DewpointF,PressureIn,WindDirection,WindDirectionDegrees,WindSpeedMPH,WindSpeedGustMPH,Humidity,HourlyPrecipIn,Conditions,Clouds,dailyrainin,SoftwareType,DateUTC
2013-11-14 00:02:00,28.0,24.0,30.25,NNE,30,6.0,7.0,83,-99.99,,,-99.99,,2013-11-14 07:02:00,
2013-11-14 00:07:00,28.0,24.0,30.25,North,350,5.0,7.0,83,-99.99,,,-99.99,,2013-11-14 07:07:00,
2013-11-14 00:17:00,28.0,24.0,30.25,NNW,330,0.0,3.0,83,-99.99,,,-99.99,,2013-11-14 07:17:00,
2013-11-14 00:22:00,28.0,24.0,30.24,NNW,330,0.0,0.0,85,-99.99,,,-99.99,,2013-11-14 07:22:00,
2013-11-14 00:32:00,28.0,24.0,30.24,NNW,330,0.0,0.0,84,-99.99,,,-99.99,,2013-11-14 07:32:00,
2013-11-14 00:37:00,28.0,23.0,30.24,NW,310,3.0,4.0,85,-99.99,,,-99.99,,2013-11-14 07:37:00,
2013-11-14 00:42:00,27.0,23.0,30.24,WNW,300,5.0,5.0,85,-99.99,,,-99.99,,2013-11-14 07:42:00,
2013-11-14 00:52:00,27.0,23.0,30.24,NNW,330,0.0,6.0,86,-99.99,,,-99.99,,2013-11-14 07:52:00,
2013-11-14 00:57:00,26.0,23.0,30.23,NNW,330,7.0,7.0,86,-99.99,,,-99.99,,2013-11-14 07:57:00,
2013-11-14 01:02:00,26.0,23.0,30.23,NNE,20,3.0,6.0,87,-99.99,,,-99.99,,2013-11-14 08:02:00,
2013-11-14 01:12:00,26.0,22.0,30.23,NW,310,6.0,7.0,88,-99.99,,,-99.99,,2013-11-14 08:12:00,
2013-11-14 01:22:00,25.0,23.0,30.23,NW,310,5.0,8.0,89,-99.99,,,-99.99,,2013-11-14 08:22:00,
2013-11-14 01:27:00,25.0,22.0,30.23,NNW,340,7.0,9.0,89,-99.99,,,-99.99,,2013-11-14 08:27:00,
2013-11-14 01:32:00,25.0,23.0,30.23,NNW,340,6.0,9.0,90,-99.99,,,-99.99,,2013-11-14 08:32:00,
2013-11-14 01:37:00,25.0,23.0,30.23,NNW,330,9.0,9.0,91,-99.99,,,-99.99,,2013-11-14 08:37:00,
2013-11-14 01:42:00,25.0,23.0,30.23,North,0,5.0,9.0,91,-99.99,,,-99.99,,2013-11-14 08:42:00,
2013-11-14 01:47:00,25.0,23.0,30.23,North,350,6.0,9.0,91,-99.99,,,-99.99,,2013-11-14 08:47:00,
2013-11-14 01:52:00,25.0,23.0,30.23,North,0,6.0,9.0,91,-99.99,,,-99.99,,2013-11-14 08:52:00,
2013-11-14 01:57:00,26.0,23.0,30.23,NNE,20,6.0,8.0,91,-99.99,,,-99.99,,2013-11-14 08:57:00,
2013-11-14 02:02:00,26.0,24.0,30.23,North,10,0.0,6.0,91,-99.99,,,-99.99,,2013-11-14 09:02:00,
2013-11-14 02:12:00,26.0,23.0,30.23,North,0,5.0,7.0,91,-99.99,,,-99.99,,2013-11-14 09:12:00,
2013-11-14 02:17:00,26.0,24.0,30.23,North,0,6.0,7.0,91,-99.99,,,-99.99,,2013-11-14 09:17:00,
2013-11-14 02:22:00,26.0,24.0,30.23,NNW,340,4.0,8.0,91,-99.99,,,-99.99,,2013-11-14 09:22:00,
2013-11-14 02:27:00,26.0,24.0,30.23,NW,310,3.0,6.0,91,-99.99,,,-99.99,,2013-11-14 09:27:00,
2013-11-14 02:37:00,26.0,24.0,30.23,North,0,6.0,8.0,91,-99.99,,,-99.99,,2013-11-14 09:37:00,
2013-11-14 02:42:00,27.0,24.0,30.23,NNE,20,6.0,8.0,91,-99.99,,,-99.99,,2013-11-14 09:42:00,
2013-11-14 02:52:00,28.0,25.0,30.23,West,270,6.0,10.0,90,-99.99,,,-99.99,,2013-11-14 09:52:00,
2013-11-14 03:02:00,29.0,26.0,30.22,NW,320,0.0,0.0,89,-99.99,,,-99.99,,2013-11-14 10:02:00,
2013-11-14 03:12:00,28.0,25.0,30.22,NE,40,0.0,5.0,89,-99.99,,,-99.99,,2013-11-14 10:12:00,
2013-11-14 03:17:00,28.0,25.0,30.22,NE,40,0.0,0.0,89,-99.99,,,-99.99,,2013-11-14 10:17:00,
2013-11-14 03:22:00,28.0,25.0,30.23,NE,40,0.0,0.0,89,-99.99,,,-99.99,,2013-11-14 10:22:00,
2013-11-14 03:32:00,28.0,25.0,30.23,NE,40,0.0,0.0,90,-99.99,,,-99.99,,2013-11-14 10:32:00,
2013-11-14 03:42:00,28.0,25.0,30.23,NE,40,0.0,0.0,90,-99.99,,,-99.99,,2013-11-14 10:42:00,
2013-11-14 03:47:00,28.0,25.0,30.22,NE,40,0.0,0.0,90,-99.99,,,-99.99,,2013-11-14 10:47:00,
2013-11-14 03:52:00,28.0,25.0,30.22,NE,40,0.0,0.0,90,-99.99,,,-99.99,,2013-11-14 10:52:00,
2013-11-14 04:02:00,27.0,25.0,30.23,NE,40,0.0,0.0,91,-99.99,,,-99.99,,2013-11-14 11:02:00,
2013-11-14 04:07:00,27.0,25.0,30.22,NE,40,0.0,0.0,91,-99.99,,,-99.99,,2013-11-14 11:07:00,
2013-11-14 04:17:00,27.0,25.0,30.23,NE,40,0.0,0.0,92,-99.99,,,-99.99,,2013-11-14 11:17:00,
2013-11-14 04:22:00,27.0,25.0,30.22,NE,40,0.0,0.0,92,-99.99,,,-99.99,,2013-11-14 11:22:00,
2013-11-14 04:27:00,27.0,25.0,30.23,NE,40,0.0,0.0,92,-99.99,,,-99.99,,2013-11-14 11:27:00,
2013-11-14 04:32:00,27.0,25.0,30.23,NE,40,0.0,0.0,93,-99.99,,,-99.99,,2013-11-14 11:32:00,
2013-11-14 04:37:00,27.0,25.0,30.23,NE,40,0.0,0.0,93,-99.99,,,-99.99,,2013-11-14 11:37:00,
2013-11-14 04:47:00,28.0,26.0,30.23,NE,40,0.0,0.0,93,-99.99,,,-99.99,,2013-11-14 11:47:00,
2013-11-14 04:57:00,28.0,26.0,30.23,NW,320,0.0,0.0,92,-99.99,,,-99.99,,2013-11-14 11:57:00,
2013-11-14 05:02:00,28.0,26.0,30.23,NW,320,0.0,0.0,93,-99.99,,,-99.99,,2013-11-14 12:02:00,
2013-11-14 05:07:00,28.0,26.0,30.22,NW,320,0.0,0.0,93,-99.99,,,-99.99,,2013-11-14 12:07:00,
2013-11-14 05:12:00,27.0,26.0,30.22,NW,320,0.0,0.0,93,-99.99,,,-99.99,,2013-11-14 12:12:00,
2013-11-14 05:17:00,27.0,26.0,30.22,NW,320,0.0,0.0,93,-99.99,,,-99.99,,2013-11-14 12:17:00,
2013-11-14 05:27:00,27.0,26.0,30.22,WNW,300,0.0,2.0,94,-99.99,,,-99.99,,2013-11-14 12:27:00,
2013-11-14 05:32:00,27.0,25.0,30.23,WNW,300,0.0,0.0,94,-99.99,,,-99.99,,2013-11-14 12:32:00,
2013-11-14 05:37:00,27.0,25.0,30.23,WNW,300,0.0,0.0,94,-99.99,,,-99.99,,2013-11-14 12:37:00,
2013-11-14 05:42:00,27.0,25.0,30.24,WNW,300,0.0,0.0,95,-99.99,,,-99.99,,2013-11-14 12:42:00,
2013-11-14 05:47:00,27.0,25.0,30.23,WNW,300,0.0,0.0,95,-99.99,,,-99.99,,2013-11-14 12:47:00,
2013-11-14 05:52:00,27.0,25.0,30.23,WNW,300,0.0,0.0,95,-99.99,,,-99.99,,2013-11-14 12:52:00,
2013-11-14 06:02:00,26.0,25.0,30.23,WNW,300,0.0,0.0,95,-99.99,,,-99.99,,2013-11-14 13:02:00,
2013-11-14 06:07:00,26.0,25.0,30.23,NNE,30,5.0,5.0,95,-99.99,,,-99.99,,2013-11-14 13:07:00,
2013-11-14 06:12:00,26.0,25.0,30.23,North,0,0.0,6.0,95,-99.99,,,-99.99,,2013-11-14 13:12:00,
2013-11-14 06:22:00,26.0,25.0,30.22,West,280,3.0,4.0,96,-99.99,,,-99.99,,2013-11-14 13:22:00,
2013-11-14 06:32:00,26.0,25.0,30.23,WNW,290,0.0,0.0,96,-99.99,,,-99.99,,2013-11-14 13:32:00,
2013-11-14 06:42:00,26.0,25.0,30.23,West,270,3.0,3.0,96,-99.99,,,-99.99,,2013-11-14 13:42:00,
2013-11-14 06:47:00,25.0,24.0,30.23,North,0,3.0,6.0,96,-99.99,,,-99.99,,2013-11-14 13:47:00,
2013-11-14 06:57:00,25.0,24.0,30.23,NE,40,0.0,6.0,96,-99.99,,,-99.99,,2013-11-14 13:57:00,
2013-11-14 07:07:00,25.0,24.0,30.24,NE,40,0.0,0.0,97,-99.99,,,-99.99,,2013-11-14 14:07:00,
2013-11-14 07:17:00,25.0,24.0,30.24,NE,40,0.0,0.0,97,-99.99,,,-99.99,,2013-11-14 14:17:00,
2013-11-14 07:22:00,24.0,23.0,30.24,NE,40,0.0,0.0,96,-99.99,,,-99.99,,2013-11-14 14:22:00,
2013-11-14 07:32:00,24.0,23.0,30.24,NNW,330,4.0,6.0,96,-99.99,,,-99.99,,2013-11-14 14:32:00,
2013-11-14 07:37:00,24.0,23.0,30.25,NNW,340,5.0,6.0,97,-99.99,,,-99.99,,2013-11-14 14:37:00,
2013-11-14 07:47:00,25.0,24.0,30.25,NNE,20,0.0,0.0,97,-99.99,,,-99.99,,2013-11-14 14:47:00,
2013-11-14 07:57:00,25.0,25.0,30.26,NNE,20,0.0,0.0,97,-99.99,,,-99.99,,2013-11-14 14:57:00,
2013-11-14 08:02:00,26.0,25.0,30.26,NNE,20,0.0,0.0,97,-99.99,,,-99.99,,2013-11-14 15:02:00,
2013-11-14 08:07:00,26.0,26.0,30.26,NNE,20,0.0,0.0,98,-99.99,,,-99.99,,2013-11-14 15:07:00,
2013-11-14 08:12:00,27.0,26.0,30.26,NNE,20,0.0,0.0,98,-99.99,,,-99.99,,2013-11-14 15:12:00,
2013-11-14 08:22:00,28.0,27.0,30.26,NE,40,0.0,0.0,96,-99.99,,,-99.99,,2013-11-14 15:22:00,
2013-11-14 08:32:00,29.0,28.0,30.26,NE,40,0.0,0.0,95,-99.99,,,-99.99,,2013-11-14 15:32:00,
2013-11-14 08:42:00,30.0,29.0,30.26,NE,40,0.0,0.0,93,-99.99,,,-99.99,,2013-11-14 15:42:00,
2013-11-14 08:52:00,31.0,29.0,30.26,NW,320,0.0,5.0,91,-99.99,,,-99.99,,2013-11-14 15:52:00,
2013-11-14 09:02:00,32.0,29.0,30.25,West,280,0.0,5.0,89,-99.99,,,-99.99,,2013-11-14 16:02:00,
2013-11-14 09:07:00,32.0,29.0,30.25,West,280,0.0,0.0,88,-99.99,,,-99.99,,2013-11-14 16:07:00,
2013-11-14 09:17:00,33.0,30.0,30.25,North,350,0.0,4.0,87,-99.99,,,-99.99,,2013-11-14 16:17:00,
2013-11-14 09:27:00,34.0,30.0,30.24,WNW,300,5.0,8.0,84,-99.99,,,-99.99,,2013-11-14 16:27:00,
2013-11-14 09:37:00,35.0,29.0,30.24,NW,310,0.0,8.0,80,-99.99,,,-99.99,,2013-11-14 16:37:00,
2013-11-14 09:47:00,36.0,29.0,30.24,NNW,340,3.0,8.0,77,-99.99,,,-99.99,,2013-11-14 16:47:00,
2013-11-14 09:57:00,37.0,29.0,30.24,West,280,6.0,7.0,73,-99.99,,,-99.99,,2013-11-14 16:57:00,
2013-11-14 10:07:00,38.0,29.0,30.23,NNE,20,0.0,5.0,69,-99.99,,,-99.99,,2013-11-14 17:07:00,
2013-11-14 10:12:00,38.0,28.0,30.23,NNE,20,0.0,0.0,66,-99.99,,,-99.99,,2013-11-14 17:12:00,
2013-11-14 10:22:00,38.0,28.0,30.23,WNW,300,0.0,5.0,65,-99.99,,,-99.99,,2013-11-14 17:22:00,
2013-11-14 10:27:00,39.0,27.0,30.22,West,270,0.0,2.0,64,-99.99,,,-99.99,,2013-11-14 17:27:00,
2013-11-14 10:32:00,39.0,27.0,30.22,North,0,5.0,5.0,63,-99.99,,,-99.99,,2013-11-14 17:32:00,
2013-11-14 10:42:00,40.0,27.0,30.22,WNW,300,8.0,9.0,60,-99.99,,,-99.99,,2013-11-14 17:42:00,
2013-11-14 10:52:00,40.0,26.0,30.22,West,270,0.0,4.0,56,-99.99,,,-99.99,,2013-11-14 17:52:00,
2013-11-14 10:57:00,40.0,25.0,30.22,West,280,0.0,6.0,54,-99.99,,,-99.99,,2013-11-14 17:57:00,
2013-11-14 11:07:00,41.0,25.0,30.22,North,0,0.0,0.0,53,-99.99,,,-99.99,,2013-11-14 18:07:00,
2013-11-14 11:12:00,41.0,24.0,30.22,NNW,330,6.0,6.0,50,-99.99,,,-99.99,,2013-11-14 18:12:00,
2013-11-14 11:17:00,42.0,23.0,30.21,WNW,300,0.0,10.0,48,-99.99,,,-99.99,,2013-11-14 18:17:00,
2013-11-14 11:22:00,42.0,23.0,30.21,ENE,60,0.0,4.0,47,-99.99,,,-99.99,,2013-11-14 18:22:00,
2013-11-14 11:32:00,42.0,22.0,30.21,North,0,6.0,9.0,44,-99.99,,,-99.99,,2013-11-14 18:32:00,
2013-11-14 11:42:00,43.0,22.0,30.20,ENE,60,0.0,7.0,44,-99.99,,,-99.99,,2013-11-14 18:42:00,
2013-11-14 11:52:00,43.0,22.0,30.19,West,270,4.0,11.0,43,-99.99,,,-99.99,,2013-11-14 18:52:00,
2013-11-14 11:57:00,44.0,22.0,30.19,NE,40,4.0,7.0,42,-99.99,,,-99.99,,2013-11-14 18:57:00,
2013-11-14 12:07:00,44.0,22.0,30.19,SE,140,0.0,3.0,41,-99.99,,,-99.99,,2013-11-14 19:07:00,
2013-11-14 12:12:00,44.0,21.0,30.18,North,10,4.0,7.0,40,-99.99,,,-99.99,,2013-11-14 19:12:00,
2013-11-14 12:17:00,44.0,21.0,30.18,West,280,6.0,8.0,39,-99.99,,,-99.99,,2013-11-14 19:17:00,
2013-11-14 12:22:00,45.0,21.0,30.17,West,270,5.0,8.0,38,-99.99,,,-99.99,,2013-11-14 19:22:00,
2013-11-14 12:27:00,45.0,21.0,30.17,WSW,250,0.0,6.0,38,-99.99,,,-99.99,,2013-11-14 19:27:00,
2013-11-14 12:32:00,46.0,21.0,30.17,ENE,60,5.0,12.0,37,-99.99,,,-99.99,,2013-11-14 19:32:00,
2013-11-14 12:37:00,46.0,21.0,30.17,West,270,6.0,10.0,37,-99.99,,,-99.99,,2013-11-14 19:37:00,
2013-11-14 12:47:00,46.0,20.0,30.16,North,0,3.0,6.0,36,-99.99,,,-99.99,,2013-11-14 19:47:00,
2013-11-14 12:57:00,46.0,19.0,30.16,NNE,20,3.0,12.0,35,-99.99,,,-99.99,,2013-11-14 19:57:00,
2013-11-14 13:02:00,46.0,19.0,30.16,NW,320,6.0,8.0,33,-99.99,,,-99.99,,2013-11-14 20:02:00,
2013-11-14 13:07:00,46.0,19.0,30.16,North,350,9.0,11.0,33,-99.99,,,-99.99,,2013-11-14 20:07:00,
2013-11-14 13:12:00,47.0,18.0,30.16,WNW,290,8.0,10.0,32,-99.99,,,-99.99,,2013-11-14 20:12:00,
2013-11-14 13:22:00,47.0,17.0,30.16,North,0,5.0,6.0,31,-99.99,,,-99.99,,2013-11-14 20:22:00,
2013-11-14 13:27:00,47.0,17.0,30.15,NNE,30,0.0,9.0,30,-99.99,,,-99.99,,2013-11-14 20:27:00,
2013-11-14 13:37:00,47.0,18.0,30.15,SW,230,5.0,5.0,32,-99.99,,,-99.99,,2013-11-14 20:37:00,
2013-11-14 13:47:00,48.0,18.0,30.15,West,260,9.0,10.0,30,-99.99,,,-99.99,,2013-11-14 20:47:00,
2013-11-14 13:52:00,48.0,17.0,30.15,NNW,340,5.0,9.0,29,-99.99,,,-99.99,,2013-11-14 20:52:00,
2013-11-14 14:02:00,48.0,16.0,30.15,WSW,250,0.0,6.0,27,-99.99,,,-99.99,,2013-11-14 21:02:00,
2013-11-14 14:07:00,48.0,17.0,30.15,WSW,250,9.0,10.0,29,-99.99,,,-99.99,,2013-11-14 21:07:00,
2013-11-14 14:17:00,49.0,17.0,30.14,NW,310,6.0,7.0,29,-99.99,,,-99.99,,2013-11-14 21:17:00,
2013-11-14 14:22:00,49.0,16.0,30.14,WNW,300,7.0,9.0,27,-99.99,,,-99.99,,2013-11-14 21:22:00,
2013-11-14 14:32:00,48.0,16.0,30.14,NNE,20,5.0,8.0,27,-99.99,,,-99.99,,2013-11-14 21:32:00,
2013-11-14 14:37:00,48.0,16.0,30.14,NNW,330,5.0,9.0,27,-99.99,,,-99.99,,2013-11-14 21:37:00,
2013-11-14 14:47:00,48.0,15.0,30.13,NW,310,7.0,8.0,27,-99.99,,,-99.99,,2013-11-14 21:47:00,
2013-11-14 14:57:00,48.0,17.0,30.13,NW,310,4.0,11.0,29,-99.99,,,-99.99,,2013-11-14 21:57:00,
2013-11-14 15:02:00,48.0,17.0,30.13,West,280,10.0,11.0,29,-99.99,,,-99.99,,2013-11-14 22:02:00,
2013-11-14 15:12:00,48.0,19.0,30.13,West,280,8.0,11.0,31,-99.99,,,-99.99,,2013-11-14 22:12:00,
2013-11-14 15:17:00,48.0,19.0,30.13,West,270,10.0,14.0,31,-99.99,,,-99.99,,2013-11-14 22:17:00,
2013-11-14 15:22:00,48.0,18.0,30.13,WNW,300,12.0,14.0,31,-99.99,,,-99.99,,2013-11-14 22:22:00,
2013-11-14 15:27:00,48.0,19.0,30.12,West,270,8.0,13.0,32,-99.99,,,-99.99,,2013-11-14 22:27:00,
2013-11-14 15:32:00,47.0,20.0,30.12,West,270,12.0,15.0,34,-99.99,,,-99.99,,2013-11-14 22:32:00,
2013-11-14 15:42:00,46.0,21.0,30.12,WNW,290,12.0,14.0,37,-99.99,,,-99.99,,2013-11-14 22:42:00,
2013-11-14 15:47:00,45.0,21.0,30.12,WNW,300,7.0,14.0,38,-99.99,,,-99.99,,2013-11-14 22:47:00,
2013-11-14 15:57:00,45.0,21.0,30.11,WNW,290,4.0,10.0,39,-99.99,,,-99.99,,2013-11-14 22:57:00,
2013-11-14 16:07:00,44.0,22.0,30.11,WNW,300,5.0,9.0,41,-99.99,,,-99.99,,2013-11-14 23:07:00,
2013-11-14 16:12:00,44.0,22.0,30.11,NNW,330,3.0,7.0,41,-99.99,,,-99.99,,2013-11-14 23:12:00,
2013-11-14 16:22:00,43.0,22.0,30.11,North,350,5.0,6.0,44,-99.99,,,-99.99,,2013-11-14 23:22:00,
2013-11-14 16:27:00,42.0,22.0,30.11,North,0,4.0,6.0,44,-99.99,,,-99.99,,2013-11-14 23:27:00,
2013-11-14 16:37:00,41.0,22.0,30.11,NNE,20,5.0,6.0,46,-99.99,,,-99.99,,2013-11-14 23:37:00,
2013-11-14 16:42:00,40.0,22.0,30.10,North,0,2.0,6.0,47,-99.99,,,-99.99,,2013-11-14 23:42:00,
2013-11-14 16:47:00,40.0,21.0,30.10,North,0,6.0,6.0,47,-99.99,,,-99.99,,2013-11-14 23:47:00,
2013-11-14 16:52:00,40.0,21.0,30.10,NNW,330,6.0,7.0,47,-99.99,,,-99.99,,2013-11-14 23:52:00,
2013-11-14 16:57:00,39.0,22.0,30.10,West,270,5.0,7.0,49,-99.99,,,-99.99,,2013-11-14 23:57:00,
2013-11-14 17:07:00,38.0,21.0,30.10,WNW,300,0.0,0.0,50,-99.99,,,-99.99,,2013-11-15 00:07:00,
2013-11-14 17:17:00,37.0,22.0,30.09,NW,310,0.0,4.0,53,-99.99,,,-99.99,,2013-11-15 00:17:00,
2013-11-14 17:22:00,37.0,22.0,30.09,NW,310,0.0,0.0,54,-99.99,,,-99.99,,2013-11-15 00:22:00,
2013-11-14 17:27:00,36.0,21.0,30.09,NW,310,0.0,0.0,54,-99.99,,,-99.99,,2013-11-15 00:27:00,
2013-11-14 17:32:00,36.0,23.0,30.09,NW,310,0.0,0.0,59,-99.99,,,-99.99,,2013-11-15 00:32:00,
2013-11-14 17:42:00,35.0,22.0,30.09,NW,310,0.0,0.0,59,-99.99,,,-99.99,,2013-11-15 00:42:00,
2013-11-14 17:47:00,35.0,22.0,30.09,NW,310,0.0,0.0,59,-99.99,,,-99.99,,2013-11-15 00:47:00,
2013-11-14 17:52:00,34.0,22.0,30.09,NW,310,0.0,0.0,60,-99.99,,,-99.99,,2013-11-15 00:52:00,
2013-11-14 18:02:00,34.0,22.0,30.09,SW,220,0.0,4.0,62,-99.99,,,-99.99,,2013-11-15 01:02:00,
2013-11-14 18:07:00,34.0,22.0,30.09,SW,220,0.0,0.0,62,-99.99,,,-99.99,,2013-11-15 01:07:00,
2013-11-14 18:17:00,33.0,21.0,30.09,SW,220,0.0,0.0,63,-99.99,,,-99.99,,2013-11-15 01:17:00,
2013-11-14 18:22:00,32.0,21.0,30.09,SW,220,0.0,0.0,63,-99.99,,,-99.99,,2013-11-15 01:22:00,
2013-11-14 18:27:00,32.0,21.0,30.09,SW,220,0.0,0.0,63,-99.99,,,-99.99,,2013-11-15 01:27:00,
2013-11-14 18:32:00,31.0,21.0,30.09,NNW,340,3.0,6.0,64,-99.99,,,-99.99,,2013-11-15 01:32:00,
2013-11-14 18:37:00,31.0,21.0,30.09,NNW,340,0.0,4.0,66,-99.99,,,-99.99,,2013-11-15 01:37:00,
2013-11-14 18:42:00,31.0,21.0,30.09,NNW,340,0.0,0.0,66,-99.99,,,-99.99,,2013-11-15 01:42:00,
2013-11-14 18:47:00,31.0,21.0,30.08,North,350,3.0,4.0,66,-99.99,,,-99.99,,2013-11-15 01:47:00,
2013-11-14 18:57:00,30.0,21.0,30.08,NE,50,0.0,5.0,69,-99.99,,,-99.99,,2013-11-15 01:57:00,
2013-11-14 19:07:00,30.0,21.0,30.08,ENE,60,5.0,7.0,70,-99.99,,,-99.99,,2013-11-15 02:07:00,
2013-11-14 19:12:00,29.0,21.0,30.08,NE,50,0.0,5.0,70,-99.99,,,-99.99,,2013-11-15 02:12:00,
2013-11-14 19:17:00,29.0,21.0,30.08,WNW,300,0.0,5.0,70,-99.99,,,-99.99,,2013-11-15 02:17:00,
2013-11-14 19:27:00,28.0,21.0,30.08,North,350,0.0,0.0,72,-99.99,,,-99.99,,2013-11-15 02:27:00,
2013-11-14 19:32:00,28.0,21.0,30.07,North,350,0.0,0.0,75,-99.99,,,-99.99,,2013-11-15 02:32:00,
2013-11-14 19:37:00,28.0,21.0,30.07,North,10,4.0,5.0,75,-99.99,,,-99.99,,2013-11-15 02:37:00,
2013-11-14 19:42:00,27.0,21.0,30.07,NW,320,5.0,7.0,75,-99.99,,,-99.99,,2013-11-15 02:42:00,
2013-11-14 19:52:00,27.0,21.0,30.07,NNW,330,7.0,9.0,77,-99.99,,,-99.99,,2013-11-15 02:52:00,
2013-11-14 20:02:00,26.0,20.0,30.06,NNE,30,6.0,7.0,77,-99.99,,,-99.99,,2013-11-15 03:02:00,
2013-11-14 20:12:00,25.0,20.0,30.06,North,10,2.0,6.0,80,-99.99,,,-99.99,,2013-11-15 03:12:00,
2013-11-14 20:22:00,25.0,20.0,30.06,NW,320,9.0,9.0,80,-99.99,,,-99.99,,2013-11-15 03:22:00,
2013-11-14 20:27:00,26.0,20.0,30.06,WNW,290,5.0,8.0,81,-99.99,,,-99.99,,2013-11-15 03:27:00,
2013-11-14 20:32:00,26.0,21.0,30.06,NNW,340,2.0,5.0,82,-99.99,,,-99.99,,2013-11-15 03:32:00,
2013-11-14 20:37:00,25.0,20.0,30.06,NNW,340,5.0,6.0,82,-99.99,,,-99.99,,2013-11-15 03:37:00,
2013-11-14 20:42:00,25.0,20.0,30.06,North,350,9.0,9.0,81,-99.99,,,-99.99,,2013-11-15 03:42:00,
2013-11-14 20:47:00,24.0,19.0,30.06,NNE,20,6.0,8.0,82,-99.99,,,-99.99,,2013-11-15 03:47:00,
2013-11-14 20:57:00,23.0,19.0,30.06,North,0,5.0,6.0,84,-99.99,,,-99.99,,2013-11-15 03:57:00,
2013-11-14 21:02:00,23.0,19.0,30.06,NNW,340,7.0,8.0,85,-99.99,,,-99.99,,2013-11-15 04:02:00,
2013-11-14 21:07:00,23.0,19.0,30.06,North,0,6.0,9.0,85,-99.99,,,-99.99,,2013-11-15 04:07:00,
2013-11-14 21:17:00,22.0,18.0,30.06,NNE,20,5.0,6.0,85,-99.99,,,-99.99,,2013-11-15 04:17:00,
2013-11-14 21:27:00,22.0,19.0,30.05,NW,310,5.0,6.0,87,-99.99,,,-99.99,,2013-11-15 04:27:00,
2013-11-14 21:32:00,22.0,19.0,30.05,WNW,300,6.0,8.0,88,-99.99,,,-99.99,,2013-11-15 04:32:00,
2013-11-14 21:42:00,22.0,19.0,30.06,NE,50,3.0,6.0,89,-99.99,,,-99.99,,2013-11-15 04:42:00,
2013-11-14 21:52:00,21.0,18.0,30.05,NNW,330,5.0,5.0,88,-99.99,,,-99.99,,2013-11-15 04:52:00,
2013-11-14 21:57:00,21.0,18.0,30.04,WNW,300,5.0,5.0,89,-99.99,,,-99.99,,2013-11-15 04:57:00,
2013-11-14 22:02:00,21.0,18.0,30.04,NNW,340,6.0,7.0,89,-99.99,,,-99.99,,2013-11-15 05:02:00,
2013-11-14 22:07:00,21.0,18.0,30.04,North,10,0.0,8.0,89,-99.99,,,-99.99,,2013-11-15 05:07:00,
2013-11-14 22:12:00,21.0,18.0,30.04,NNW,340,8.0,9.0,90,-99.99,,,-99.99,,2013-11-15 05:12:00,
2013-11-14 22:22:00,21.0,19.0,30.03,NNE,20,0.0,8.0,90,-99.99,,,-99.99,,2013-11-15 05:22:00,
2013-11-14 22:27:00,21.0,18.0,30.02,NNE,20,8.0,8.0,89,-99.99,,,-99.99,,2013-11-15 05:27:00,
2013-11-14 22:32:00,21.0,18.0,30.02,NNE,20,5.0,7.0,89,-99.99,,,-99.99,,2013-11-15 05:32:00,
2013-11-14 22:37:00,21.0,18.0,30.02,North,0,7.0,7.0,89,-99.99,,,-99.99,,2013-11-15 05:37:00,
2013-11-14 22:42:00,21.0,18.0,30.01,NW,310,0.0,7.0,88,-99.99,,,-99.99,,2013-11-15 05:42:00,
2013-11-14 22:47:00,21.0,18.0,30.01,North,350,2.0,6.0,88,-99.99,,,-99.99,,2013-11-15 05:47:00,
2013-11-14 22:57:00,20.0,18.0,30.01,North,0,5.0,8.0,89,-99.99,,,-99.99,,2013-11-15 05:57:00,
2013-11-14 23:07:00,20.0,18.0,30.00,NNW,330,5.0,9.0,90,-99.99,,,-99.99,,2013-11-15 06:07:00,
2013-11-14 23:12:00,21.0,18.0,30.00,NNW,340,8.0,8.0,90,-99.99,,,-99.99,,2013-11-15 06:12:00,
2013-11-14 23:22:00,20.0,18.0,30.00,NW,320,9.0,9.0,90,-99.99,,,-99.99,,2013-11-15 06:22:00,
2013-11-14 23:27:00,20.0,18.0,29.99,North,350,8.0,10.0,91,-99.99,,,-99.99,,2013-11-15 06:27:00,
2013-11-14 23:37:00,20.0,17.0,29.99,NNE,30,5.0,6.0,91,-99.99,,,-99.99,,2013-11-15 06:37:00,
2013-11-14 23:42:00,19.0,17.0,29.99,North,350,8.0,9.0,91,-99.99,,,-99.99,,2013-11-15 06:42:00,
2013-11-14 23:47:00,19.0,17.0,29.99,North,10,5.0,8.0,91,-99.99,,,-99.99,,2013-11-15 06:47:00,
2013-11-14 23:52:00,19.0,17.0,29.99,NNW,330,8.0,11.0,91,-99.99,,,-99.99,,2013-11-15 06:52:00,